Time;durP1;ratioP1;P1;durP2;ratioP2;P2;SDS_P1;SDS_P2;PMS_P1;PMS_P2;Temp;Humidity;BMP_temperature;BMP_pressure;BME280_temperature;BME280_humidity;BME280_pressure;Samples;Min_cycle;Max_cycle;Signal;HPM_P1;HPM_P2
2022/05/28 00:01:40;;;;;;;9.97;3.60;;;;;;;;;;10463780;28;20048;-80
2022/05/28 00:06:40;;;;;;;6.43;3.10;;;;;;;;;;10477529;28;20994;-78
2022/05/28 00:11:41;;;;;;;5.78;3.00;;;;;;;;;;10469091;28;20283;-78
2022/05/28 00:16:41;;;;;;;6.88;3.50;;;;;;;;;;10468936;28;20052;-77
2022/05/28 00:21:42;;;;;;;5.68;3.10;;;;;;;;;;10483883;28;20138;-76
2022/05/28 00:26:44;;;;;;;5.43;3.03;;;;;;;;;;10476491;28;20479;-78
2022/05/28 00:31:44;;;;;;;4.88;2.90;;;;;;;;;;10462092;28;20359;-79
2022/05/28 00:36:44;;;;;;;4.85;3.08;;;;;;;;;;10473950;28;20113;-77
2022/05/28 00:41:45;;;;;;;4.28;2.97;;;;;;;;;;10452464;28;20046;-80
2022/05/28 00:46:46;;;;;;;5.88;3.33;;;;;;;;;;10464791;28;20040;-78
2022/05/28 00:51:48;;;;;;;5.00;2.90;;;;;;;;;;10482706;28;20161;-79
2022/05/28 00:56:49;;;;;;;5.70;3.05;;;;;;;;;;10473561;28;20083;-79
2022/05/28 01:01:50;;;;;;;6.90;3.28;;;;;;;;;;10483462;28;20044;-79
2022/05/28 01:07:13;;;;;;;5.10;3.90;;;;;;;;;;10477753;28;20053;-78
2022/05/28 01:12:15;;;;;;;5.20;3.13;;;;;;;;;;10438816;28;20048;-78
2022/05/28 01:17:21;;;;;;;5.15;3.05;;;;;;;;;;10454133;28;20060;-77
2022/05/28 01:22:21;;;;;;;5.38;3.47;;;;;;;;;;10464604;28;20067;-77
2022/05/28 01:27:25;;;;;;;5.15;3.10;;;;;;;;;;10473468;28;20119;-78
2022/05/28 01:32:58;;;;;;;7.35;3.58;;;;;;;;;;10478136;28;20044;-77
2022/05/28 01:38:00;;;;;;;5.95;3.17;;;;;;;;;;10469745;28;20041;-77
2022/05/28 01:43:03;;;;;;;5.55;3.38;;;;;;;;;;10435736;28;20433;-77
2022/05/28 01:48:04;;;;;;;5.95;3.40;;;;;;;;;;10466434;28;20044;-77
2022/05/28 01:53:05;;;;;;;5.55;3.67;;;;;;;;;;10466972;28;20048;-78
2022/05/28 01:58:06;;;;;;;6.43;3.67;;;;;;;;;;10478799;28;20116;-78
2022/05/28 02:03:06;;;;;;;6.28;3.80;;;;;;;;;;10451742;28;20053;-78
2022/05/28 02:08:06;;;;;;;5.13;3.20;;;;;;;;;;10446592;28;20042;-78
2022/05/28 02:13:13;;;;;;;6.22;3.45;;;;;;;;;;10434510;28;20718;-77
2022/05/28 02:18:32;;;;;;;7.00;3.15;;;;;;;;;;10462291;28;20857;-78
2022/05/28 02:23:36;;;;;;;5.18;3.10;;;;;;;;;;10451891;28;20468;-78
2022/05/28 02:28:36;;;;;;;4.15;2.80;;;;;;;;;;10472248;28;20040;-78
2022/05/28 02:33:37;;;;;;;7.00;3.50;;;;;;;;;;10438853;28;20480;-77
2022/05/28 02:38:37;;;;;;;4.87;3.30;;;;;;;;;;10455933;28;20040;-76
2022/05/28 02:43:38;;;;;;;5.88;3.35;;;;;;;;;;10465869;28;20284;-77
2022/05/28 02:48:39;;;;;;;6.22;3.25;;;;;;;;;;10469427;28;20498;-76
2022/05/28 02:53:39;;;;;;;6.20;3.60;;;;;;;;;;10460327;28;20412;-75
2022/05/28 02:58:40;;;;;;;6.45;3.13;;;;;;;;;;10457143;28;20051;-76
2022/05/28 03:03:40;;;;;;;5.73;3.10;;;;;;;;;;10462805;28;20049;-77
2022/05/28 03:08:40;;;;;;;5.37;2.97;;;;;;;;;;10440426;28;20370;-77
2022/05/28 03:13:41;;;;;;;4.82;3.10;;;;;;;;;;10465170;28;20163;-78
2022/05/28 03:18:41;;;;;;;8.05;3.40;;;;;;;;;;10468952;28;20044;-79
2022/05/28 03:23:47;;;;;;;6.30;3.00;;;;;;;;;;10474333;28;20055;-78
2022/05/28 03:28:49;;;;;;;6.32;3.20;;;;;;;;;;10452756;28;20055;-78
2022/05/28 03:33:50;;;;;;;8.15;3.30;;;;;;;;;;10474577;28;20041;-78
2022/05/28 03:38:50;;;;;;;7.20;3.60;;;;;;;;;;10490009;28;20041;-78
2022/05/28 03:43:51;;;;;;;5.50;3.35;;;;;;;;;;10477543;28;20052;-80
2022/05/28 03:48:53;;;;;;;6.75;4.03;;;;;;;;;;10486370;28;20215;-76
2022/05/28 03:53:54;;;;;;;4.63;3.17;;;;;;;;;;10472061;28;20105;-79
2022/05/28 03:58:54;;;;;;;7.80;3.60;;;;;;;;;;10463014;28;20102;-77
2022/05/28 04:03:54;;;;;;;8.30;3.83;;;;;;;;;;10466573;28;20052;-78
2022/05/28 04:08:56;;;;;;;6.50;3.50;;;;;;;;;;10471212;28;20476;-77
2022/05/28 04:13:56;;;;;;;7.40;3.85;;;;;;;;;;10474876;28;20080;-77
2022/05/28 04:18:57;;;;;;;4.93;3.50;;;;;;;;;;10473267;28;20076;-79
2022/05/28 04:23:57;;;;;;;7.65;3.90;;;;;;;;;;10434674;28;20069;-73
2022/05/28 04:28:57;;;;;;;11.43;4.32;;;;;;;;;;10460065;28;20137;-77
2022/05/28 04:33:58;;;;;;;7.93;3.55;;;;;;;;;;10463898;28;20142;-76
2022/05/28 04:38:58;;;;;;;8.43;3.70;;;;;;;;;;10469343;28;20135;-75
2022/05/28 04:43:58;;;;;;;7.32;3.20;;;;;;;;;;10460687;28;20287;-74
2022/05/28 04:48:59;;;;;;;7.85;3.20;;;;;;;;;;10469893;28;20060;-75
2022/05/28 04:53:59;;;;;;;6.00;3.70;;;;;;;;;;10450975;28;20045;-75
2022/05/28 04:58:59;;;;;;;8.00;3.33;;;;;;;;;;10463883;28;20111;-74
2022/05/28 05:04:00;;;;;;;6.53;3.30;;;;;;;;;;10462111;28;20291;-74
2022/05/28 05:09:00;;;;;;;6.82;3.90;;;;;;;;;;10445330;28;20363;-76
2022/05/28 05:14:00;;;;;;;8.38;4.15;;;;;;;;;;10476094;28;20097;-76
2022/05/28 05:19:01;;;;;;;10.73;4.43;;;;;;;;;;10437797;28;20172;-77
2022/05/28 05:24:01;;;;;;;7.50;2.92;;;;;;;;;;10454582;28;20283;-77
2022/05/28 05:29:01;;;;;;;4.53;2.77;;;;;;;;;;10456748;28;20041;-78
2022/05/28 05:34:02;;;;;;;7.32;2.58;;;;;;;;;;10452802;28;20370;-77
2022/05/28 05:39:03;;;;;;;5.87;2.63;;;;;;;;;;10474119;28;20131;-76
2022/05/28 05:44:03;;;;;;;7.00;2.45;;;;;;;;;;10463634;28;20139;-77
2022/05/28 05:49:04;;;;;;;5.70;2.05;;;;;;;;;;10469621;28;20041;-76
2022/05/28 05:54:04;;;;;;;7.93;2.90;;;;;;;;;;10473634;28;20130;-78
2022/05/28 05:59:04;;;;;;;7.57;3.00;;;;;;;;;;10475687;28;20045;-78
2022/05/28 06:04:05;;;;;;;4.53;2.45;;;;;;;;;;10485330;28;20531;-78
2022/05/28 06:09:05;;;;;;;5.93;1.87;;;;;;;;;;10471024;28;20135;-76
2022/05/28 06:14:06;;;;;;;5.43;2.40;;;;;;;;;;10463843;28;20090;-77
2022/05/28 06:19:08;;;;;;;6.70;2.43;;;;;;;;;;10464891;28;20094;-77
2022/05/28 06:24:08;;;;;;;10.33;3.13;;;;;;;;;;10473877;28;20098;-76
2022/05/28 06:29:12;;;;;;;8.30;2.30;;;;;;;;;;10443587;28;20079;-76
2022/05/28 06:34:14;;;;;;;6.28;2.30;;;;;;;;;;10480123;28;20519;-76
2022/05/28 06:39:14;;;;;;;4.30;2.47;;;;;;;;;;10486235;28;20733;-75
2022/05/28 06:44:15;;;;;;;5.03;2.30;;;;;;;;;;10487481;28;20136;-76
2022/05/28 06:49:16;;;;;;;5.13;2.00;;;;;;;;;;10472615;28;20050;-76
2022/05/28 06:54:16;;;;;;;4.60;1.73;;;;;;;;;;10486856;28;20036;-75
2022/05/28 06:59:16;;;;;;;6.83;2.67;;;;;;;;;;10476916;28;20157;-76
2022/05/28 07:04:17;;;;;;;7.37;2.43;;;;;;;;;;10460623;28;20291;-77
2022/05/28 07:09:18;;;;;;;5.15;2.38;;;;;;;;;;10444407;28;20338;-78
2022/05/28 07:14:19;;;;;;;9.57;4.53;;;;;;;;;;10478526;28;20615;-77
2022/05/28 07:19:20;;;;;;;6.82;1.90;;;;;;;;;;10462131;28;20951;-77
2022/05/28 07:24:20;;;;;;;8.77;2.40;;;;;;;;;;10470009;28;20070;-75
2022/05/28 07:29:20;;;;;;;6.50;2.00;;;;;;;;;;10481516;28;20044;-76
2022/05/28 07:34:21;;;;;;;4.80;1.93;;;;;;;;;;10453344;28;20307;-77
2022/05/28 07:39:21;;;;;;;8.07;2.00;;;;;;;;;;10468924;28;20823;-77
2022/05/28 07:44:21;;;;;;;6.47;1.97;;;;;;;;;;10474236;28;20101;-75
2022/05/28 07:49:22;;;;;;;4.43;1.73;;;;;;;;;;10477282;28;20121;-76
2022/05/28 07:54:23;;;;;;;3.25;1.67;;;;;;;;;;10472675;28;20047;-76
2022/05/28 07:59:24;;;;;;;5.03;1.70;;;;;;;;;;10445953;28;20049;-77
2022/05/28 08:04:24;;;;;;;4.60;2.17;;;;;;;;;;10440279;28;20057;-74
2022/05/28 08:09:24;;;;;;;5.60;1.60;;;;;;;;;;10455090;28;20384;-75
2022/05/28 08:14:24;;;;;;;4.57;1.63;;;;;;;;;;10452690;28;20166;-76
2022/05/28 08:19:25;;;;;;;7.22;2.40;;;;;;;;;;10471135;28;20131;-76
2022/05/28 08:24:25;;;;;;;6.33;2.20;;;;;;;;;;10461787;28;20041;-75
2022/05/28 08:29:25;;;;;;;4.65;1.60;;;;;;;;;;10475494;28;20036;-76
2022/05/28 08:34:26;;;;;;;3.73;1.47;;;;;;;;;;10464159;28;20085;-79
2022/05/28 08:39:26;;;;;;;4.77;2.13;;;;;;;;;;10479304;28;20047;-78
2022/05/28 08:44:29;;;;;;;9.23;4.67;;;;;;;;;;10458566;28;20045;-77
2022/05/28 08:49:30;;;;;;;4.97;1.80;;;;;;;;;;10459555;28;20295;-76
2022/05/28 08:54:43;;;;;;;7.68;2.60;;;;;;;;;;10470336;28;20064;-77
2022/05/28 08:59:50;;;;;;;15.13;3.50;;;;;;;;;;10450573;28;20115;-77
2022/05/28 09:04:53;;;;;;;6.93;2.20;;;;;;;;;;10473957;28;20073;-76
2022/05/28 09:09:54;;;;;;;6.50;2.33;;;;;;;;;;10464462;28;20048;-76
2022/05/28 09:14:55;;;;;;;2.53;1.35;;;;;;;;;;10443813;28;20167;-75
2022/05/28 09:19:56;;;;;;;5.00;1.52;;;;;;;;;;10460249;28;20587;-77
2022/05/28 09:24:57;;;;;;;6.85;2.22;;;;;;;;;;10468968;28;20041;-78
2022/05/28 09:29:57;;;;;;;8.30;2.57;;;;;;;;;;10424617;28;20068;-76
2022/05/28 09:35:00;;;;;;;6.15;2.50;;;;;;;;;;10459393;28;20287;-75
2022/05/28 09:40:09;;;;;;;4.50;2.00;;;;;;;;;;10482659;28;20048;-75
2022/05/28 09:45:09;;;;;;;12.57;5.50;;;;;;;;;;10470358;28;20056;-78
2022/05/28 09:50:16;;;;;;;5.07;2.13;;;;;;;;;;10475252;28;20036;-76
2022/05/28 09:55:18;;;;;;;6.13;1.95;;;;;;;;;;10468762;28;20291;-77
2022/05/28 10:00:20;;;;;;;7.83;3.47;;;;;;;;;;10428288;28;20065;-77
2022/05/28 10:05:21;;;;;;;3.40;1.48;;;;;;;;;;10457932;28;20189;-77
2022/05/28 10:10:23;;;;;;;4.20;1.50;;;;;;;;;;10474185;28;20486;-76
2022/05/28 10:15:24;;;;;;;3.83;1.77;;;;;;;;;;10463572;28;20048;-75
2022/05/28 10:20:25;;;;;;;4.30;2.17;;;;;;;;;;10465238;28;20129;-76
2022/05/28 10:25:31;;;;;;;5.15;1.83;;;;;;;;;;10455672;28;20044;-77
2022/05/28 10:30:34;;;;;;;4.47;1.48;;;;;;;;;;10468965;28;20110;-77
2022/05/28 10:35:34;;;;;;;;;;;;;;;;;;10464493;28;20122;-77
2022/05/28 10:40:38;;;;;;;4.45;1.70;;;;;;;;;;10474485;28;20430;-77
2022/05/28 10:45:43;;;;;;;2.10;1.48;;;;;;;;;;10462376;28;20045;-76
2022/05/28 10:50:50;;;;;;;3.63;1.52;;;;;;;;;;10429053;28;20044;-74
2022/05/28 10:55:59;;;;;;;3.85;1.52;;;;;;;;;;10445256;28;20124;-75
2022/05/28 11:01:03;;;;;;;1.70;1.40;;;;;;;;;;10453888;28;20064;-72
2022/05/28 11:06:13;;;;;;;4.63;1.98;;;;;;;;;;10476105;28;20087;-74
2022/05/28 11:11:29;;;;;;;3.15;1.90;;;;;;;;;;10435867;28;20463;-73
2022/05/28 11:16:46;;;;;;;4.32;1.85;;;;;;;;;;10461949;28;20043;-74
2022/05/28 11:22:05;;;;;;;3.38;1.58;;;;;;;;;;10463179;28;20505;-72
2022/05/28 11:27:25;;;;;;;2.50;1.30;;;;;;;;;;10447320;28;20395;-77
2022/05/28 11:32:27;;;;;;;4.10;1.60;;;;;;;;;;10450216;28;20068;-77
2022/05/28 11:37:36;;;;;;;4.78;1.58;;;;;;;;;;10467641;28;20044;-73
2022/05/28 11:42:49;;;;;;;3.25;1.20;;;;;;;;;;10445562;28;20216;-75
2022/05/28 11:47:55;;;;;;;3.47;1.77;;;;;;;;;;10462260;28;20045;-72
2022/05/28 11:52:57;;;;;;;2.47;1.30;;;;;;;;;;10457949;28;20055;-76
2022/05/28 11:58:19;;;;;;;4.32;1.50;;;;;;;;;;10447931;28;20127;-80
2022/05/28 12:03:21;;;;;;;4.47;1.55;;;;;;;;;;10475367;28;20048;-77
2022/05/28 12:08:26;;;;;;;4.13;1.60;;;;;;;;;;10482227;28;20071;-81
2022/05/28 12:13:33;;;;;;;3.35;1.73;;;;;;;;;;10479713;28;20036;-77
2022/05/28 12:18:37;;;;;;;3.17;1.73;;;;;;;;;;10447026;28;20052;-80
2022/05/28 12:23:42;;;;;;;4.00;1.70;;;;;;;;;;10443540;28;20053;-82
2022/05/28 12:28:49;;;;;;;3.67;1.63;;;;;;;;;;10462958;28;20059;-77
2022/05/28 12:33:55;;;;;;;2.05;1.45;;;;;;;;;;10496227;28;20037;-83
2022/05/28 12:39:17;;;;;;;11.93;6.55;;;;;;;;;;10490092;28;20143;-79
2022/05/28 12:44:20;;;;;;;4.57;1.77;;;;;;;;;;10491634;28;20044;-79
2022/05/28 12:49:23;;;;;;;16.25;3.50;;;;;;;;;;10483994;28;20045;-81
2022/05/28 12:54:28;;;;;;;2.90;1.50;;;;;;;;;;10508196;28;20049;-81
2022/05/28 12:59:30;;;;;;;4.15;1.50;;;;;;;;;;10467731;28;20576;-78
2022/05/28 13:04:46;;;;;;;3.85;1.50;;;;;;;;;;10479010;28;20045;-81
2022/05/28 13:09:47;;;;;;;9.90;2.10;;;;;;;;;;10492026;28;20048;-79
2022/05/28 13:15:07;;;;;;;1.95;1.38;;;;;;;;;;10508222;28;20079;-79
2022/05/28 13:20:16;;;;;;;3.45;1.90;;;;;;;;;;10492528;28;20067;-87
2022/05/28 13:25:22;;;;;;;5.30;2.28;;;;;;;;;;10501431;28;20129;-81
2022/05/28 13:30:28;;;;;;;4.05;1.50;;;;;;;;;;10501560;28;20056;-84
2022/05/28 13:35:38;;;;;;;2.67;1.48;;;;;;;;;;10449724;28;20375;-81
2022/05/28 13:40:41;;;;;;;2.95;1.70;;;;;;;;;;10516209;28;20056;-87
2022/05/28 13:45:46;;;;;;;4.85;1.55;;;;;;;;;;10463281;28;20041;-80
2022/05/28 13:50:48;;;;;;;1.65;1.30;;;;;;;;;;10449963;28;20088;-85
2022/05/28 13:55:49;;;;;;;;;;;;;;;;;;10486631;28;20095;-81
2022/05/28 14:01:00;;;;;;;2.53;1.50;;;;;;;;;;10514450;28;19920;-82
2022/05/28 14:06:04;;;;;;;1.52;1.42;;;;;;;;;;10493785;28;20044;-78
2022/05/28 14:11:21;;;;;;;3.50;1.70;;;;;;;;;;10500816;28;20068;-81
2022/05/28 14:16:31;;;;;;;2.92;1.30;;;;;;;;;;10457203;28;20048;-82
2022/05/28 14:21:34;;;;;;;2.90;1.38;;;;;;;;;;10473245;28;20083;-79
2022/05/28 14:26:35;;;;;;;3.38;1.73;;;;;;;;;;10494430;28;20102;-81
2022/05/28 14:31:37;;;;;;;3.08;1.35;;;;;;;;;;10459191;28;20071;-81
2022/05/28 14:36:37;;;;;;;2.87;1.67;;;;;;;;;;10496552;28;20071;-81
2022/05/28 14:41:43;;;;;;;3.40;1.60;;;;;;;;;;10490014;28;20405;-85
2022/05/28 14:46:45;;;;;;;4.22;2.00;;;;;;;;;;10493178;28;20053;-82
2022/05/28 14:51:48;;;;;;;2.67;1.25;;;;;;;;;;10511687;28;20120;-80
2022/05/28 14:56:50;;;;;;;3.33;1.63;;;;;;;;;;10453973;28;20047;-82
2022/05/28 15:01:50;;;;;;;2.60;1.10;;;;;;;;;;10449666;28;20103;-80
2022/05/28 15:06:59;;;;;;;2.22;1.50;;;;;;;;;;10448035;28;20051;-81
2022/05/28 15:12:03;;;;;;;2.25;1.40;;;;;;;;;;10465171;28;20040;-79
2022/05/28 15:17:05;;;;;;;3.50;1.60;;;;;;;;;;10461104;28;20040;-80
2022/05/28 15:22:22;;;;;;;2.50;1.40;;;;;;;;;;10488633;28;20063;-79
2022/05/28 15:27:27;;;;;;;3.35;2.10;;;;;;;;;;10455364;28;20040;-80
2022/05/28 15:32:32;;;;;;;3.15;1.80;;;;;;;;;;10493567;28;20045;-81
2022/05/28 15:42:52;;;;;;;2.78;1.33;;;;;;;;;;10465888;28;20821;-79
2022/05/28 15:47:54;;;;;;;2.53;1.50;;;;;;;;;;10475446;28;20101;-82
2022/05/28 15:52:55;;;;;;;2.17;1.47;;;;;;;;;;10447206;28;20060;-79
2022/05/28 15:58:02;;;;;;;3.40;1.75;;;;;;;;;;10480813;28;20279;-77
2022/05/28 16:03:03;;;;;;;3.75;2.03;;;;;;;;;;10459470;28;20056;-79
2022/05/28 16:08:24;;;;;;;3.47;1.60;;;;;;;;;;10482644;28;20084;-80
2022/05/28 16:13:25;;;;;;;3.40;1.55;;;;;;;;;;10485698;28;20461;-81
2022/05/28 16:18:25;;;;;;;2.10;1.60;;;;;;;;;;10464945;28;20040;-79
2022/05/28 16:23:27;;;;;;;2.17;1.48;;;;;;;;;;10463360;28;20055;-79
2022/05/28 16:28:27;;;;;;;1.97;1.70;;;;;;;;;;10459374;28;20051;-82
2022/05/28 16:33:28;;;;;;;2.80;1.50;;;;;;;;;;10462272;28;20040;-79
2022/05/28 16:38:28;;;;;;;3.53;1.50;;;;;;;;;;10477040;28;20059;-82
2022/05/28 16:43:31;;;;;;;3.97;1.60;;;;;;;;;;10463733;28;20090;-79
2022/05/28 16:48:32;;;;;;;3.40;1.80;;;;;;;;;;10490744;28;20299;-78
2022/05/28 16:53:33;;;;;;;2.47;1.58;;;;;;;;;;10481284;28;20393;-78
2022/05/28 16:58:34;;;;;;;1.60;1.30;;;;;;;;;;10469446;28;20383;-79
2022/05/28 17:03:37;;;;;;;2.08;1.40;;;;;;;;;;10502459;28;20085;-80
2022/05/28 17:08:38;;;;;;;3.00;1.50;;;;;;;;;;10479698;28;20445;-86
2022/05/28 17:13:45;;;;;;;2.75;1.17;;;;;;;;;;10514675;28;20044;-83
2022/05/28 17:18:47;;;;;;;1.45;1.27;;;;;;;;;;10513550;28;20096;-80
2022/05/28 17:23:48;;;;;;;2.03;1.30;;;;;;;;;;10446419;28;20124;-80
2022/05/28 17:28:48;;;;;;;3.27;1.63;;;;;;;;;;10450188;28;20042;-82
2022/05/28 17:33:50;;;;;;;3.20;1.17;;;;;;;;;;10493988;28;20082;-80
2022/05/28 17:38:50;;;;;;;1.77;1.25;;;;;;;;;;10480796;28;20045;-79
2022/05/28 17:43:52;;;;;;;1.80;1.00;;;;;;;;;;10476678;28;20109;-80
2022/05/28 17:48:52;;;;;;;2.08;1.23;;;;;;;;;;10471892;28;20298;-81
2022/05/28 17:53:54;;;;;;;1.83;0.90;;;;;;;;;;10476720;28;20051;-82
2022/05/28 17:58:55;;;;;;;2.05;0.90;;;;;;;;;;10488884;28;20072;-83
2022/05/28 18:03:56;;;;;;;1.77;1.10;;;;;;;;;;10490287;28;20123;-82
2022/05/28 18:08:56;;;;;;;2.28;1.17;;;;;;;;;;10509059;28;20064;-80
2022/05/28 18:13:57;;;;;;;2.07;1.50;;;;;;;;;;10485431;28;20044;-83
2022/05/28 18:18:58;;;;;;;3.13;1.40;;;;;;;;;;10494207;28;20040;-82
2022/05/28 18:23:59;;;;;;;2.47;1.42;;;;;;;;;;10512228;28;20045;-86
2022/05/28 18:28:59;;;;;;;1.10;1.00;;;;;;;;;;10504854;28;20037;-80
2022/05/28 18:34:04;;;;;;;1.92;1.60;;;;;;;;;;10461151;28;20267;-81
2022/05/28 18:39:06;;;;;;;2.90;1.30;;;;;;;;;;10473261;28;20040;-85
2022/05/28 18:44:07;;;;;;;2.35;1.20;;;;;;;;;;10439849;28;20245;-82
2022/05/28 18:49:08;;;;;;;2.60;1.50;;;;;;;;;;10462481;28;20047;-88
2022/05/28 18:54:12;;;;;;;2.63;1.20;;;;;;;;;;10453521;28;20112;-80
2022/05/28 18:59:14;;;;;;;2.00;1.80;;;;;;;;;;10486257;28;20028;-80
2022/05/28 19:04:16;;;;;;;;;;;;;;;;;;10493106;28;20052;-81
2022/05/28 19:09:21;;;;;;;3.13;2.25;;;;;;;;;;10444805;28;19949;-84
2022/05/28 19:14:23;;;;;;;3.33;2.10;;;;;;;;;;10503946;28;20064;-81
2022/05/28 19:19:24;;;;;;;2.88;1.90;;;;;;;;;;10497663;28;20187;-81
2022/05/28 19:24:25;;;;;;;3.75;2.17;;;;;;;;;;10473114;28;20042;-82
2022/05/28 19:29:28;;;;;;;3.97;1.83;;;;;;;;;;10503086;28;20036;-83
2022/05/28 19:34:30;;;;;;;3.75;1.77;;;;;;;;;;10502844;28;20405;-83
2022/05/28 19:39:35;;;;;;;3.57;1.80;;;;;;;;;;10435000;28;20096;-82
2022/05/28 19:44:48;;;;;;;3.67;1.70;;;;;;;;;;10482456;28;20075;-80
2022/05/28 19:50:08;;;;;;;2.85;1.80;;;;;;;;;;10425373;28;20080;-81
2022/05/28 19:55:09;;;;;;;3.75;2.13;;;;;;;;;;10460292;28;20040;-87
2022/05/28 20:00:15;;;;;;;4.55;2.70;;;;;;;;;;10412592;28;20049;-82
2022/05/28 20:05:23;;;;;;;4.13;1.83;;;;;;;;;;10442534;28;20064;-86
2022/05/28 20:10:31;;;;;;;2.95;2.10;;;;;;;;;;10407793;28;20033;-83
2022/05/28 20:15:34;;;;;;;2.60;2.00;;;;;;;;;;10449905;28;20049;-78
2022/05/28 20:20:36;;;;;;;3.20;2.10;;;;;;;;;;10490129;28;20051;-78
2022/05/28 20:25:37;;;;;;;3.55;2.17;;;;;;;;;;10471961;28;20314;-75
2022/05/28 20:30:37;;;;;;;3.85;2.53;;;;;;;;;;10487481;28;20044;-77
2022/05/28 20:35:39;;;;;;;6.30;3.58;;;;;;;;;;10460102;28;20428;-79
2022/05/28 20:40:40;;;;;;;6.75;4.65;;;;;;;;;;10443054;28;20045;-77
2022/05/28 20:45:41;;;;;;;5.38;3.63;;;;;;;;;;10467108;28;20051;-78
2022/05/28 20:50:44;;;;;;;5.60;3.47;;;;;;;;;;10450251;28;20161;-77
2022/05/28 20:55:44;;;;;;;7.47;4.50;;;;;;;;;;10467941;28;20037;-77
2022/05/28 21:00:45;;;;;;;7.30;4.30;;;;;;;;;;10463157;28;20383;-76
2022/05/28 21:05:46;;;;;;;6.43;4.30;;;;;;;;;;10467746;28;20068;-78
2022/05/28 21:10:46;;;;;;;8.73;4.93;;;;;;;;;;10460356;28;20072;-76
2022/05/28 21:15:46;;;;;;;7.93;5.50;;;;;;;;;;10459008;28;20227;-77
2022/05/28 21:20:47;;;;;;;8.45;5.22;;;;;;;;;;10447700;28;20274;-77
2022/05/28 21:29:49;;;;;;;8.63;5.20;;;;;;;;;;10495958;28;20095;-77
2022/05/28 21:31:08;;;;;;;9.23;5.75;;;;;;;;;;10486489;28;20052;-76
2022/05/28 21:36:09;;;;;;;7.90;5.73;;;;;;;;;;10489955;28;20132;-77
2022/05/28 21:41:10;;;;;;;6.47;4.85;;;;;;;;;;10479630;28;21072;-77
2022/05/28 21:46:11;;;;;;;7.55;5.15;;;;;;;;;;10476052;28;20052;-77
2022/05/28 21:51:12;;;;;;;6.97;4.50;;;;;;;;;;10476472;28;20044;-75
2022/05/28 21:56:12;;;;;;;5.75;4.32;;;;;;;;;;10457436;28;20598;-75
2022/05/28 22:01:16;;;;;;;5.85;4.25;;;;;;;;;;10452046;28;20187;-77
2022/05/28 22:06:49;;;;;;;5.32;4.28;;;;;;;;;;10462511;28;20045;-77
2022/05/28 22:11:49;;;;;;;8.27;4.95;;;;;;;;;;10485785;28;20044;-78
2022/05/28 22:16:50;;;;;;;5.68;4.50;;;;;;;;;;10458858;28;20040;-78
2022/05/28 22:21:50;;;;;;;7.37;4.87;;;;;;;;;;10458939;28;20067;-77
2022/05/28 22:26:50;;;;;;;4.57;4.10;;;;;;;;;;10446326;28;20387;-77
2022/05/28 22:31:52;;;;;;;7.30;4.93;;;;;;;;;;10461389;28;20113;-78
2022/05/28 22:36:53;;;;;;;5.43;4.25;;;;;;;;;;10482642;28;20048;-78
2022/05/28 22:41:53;;;;;;;4.75;4.20;;;;;;;;;;10454537;28;20202;-78
2022/05/28 22:46:53;;;;;;;7.67;3.73;;;;;;;;;;10431806;28;20100;-78
2022/05/28 22:51:58;;;;;;;5.68;4.20;;;;;;;;;;10465776;28;20300;-79
2022/05/28 22:57:00;;;;;;;5.68;4.00;;;;;;;;;;10460304;28;20041;-78
2022/05/28 23:02:04;;;;;;;5.43;3.65;;;;;;;;;;10484084;28;20112;-79
2022/05/28 23:07:05;;;;;;;4.28;3.67;;;;;;;;;;10447648;28;20048;-79
2022/05/28 23:12:05;;;;;;;3.70;3.23;;;;;;;;;;10436001;28;20143;-77
2022/05/28 23:17:06;;;;;;;3.70;3.35;;;;;;;;;;10455950;28;20332;-77
2022/05/28 23:22:07;;;;;;;6.75;4.35;;;;;;;;;;10492403;28;20053;-78
2022/05/28 23:27:07;;;;;;;5.80;3.72;;;;;;;;;;10488300;28;20037;-79
2022/05/28 23:32:09;;;;;;;4.88;4.18;;;;;;;;;;10457517;28;20132;-81
2022/05/28 23:37:11;;;;;;;4.57;3.90;;;;;;;;;;10470439;28;20179;-79
2022/05/28 23:42:12;;;;;;;4.68;3.97;;;;;;;;;;10482788;28;20055;-80
2022/05/28 23:47:14;;;;;;;5.18;3.90;;;;;;;;;;10480461;28;20415;-77
2022/05/28 23:52:16;;;;;;;5.40;3.60;;;;;;;;;;10460457;28;20041;-77
2022/05/28 23:57:16;;;;;;;4.97;3.97;;;;;;;;;;10459477;28;20033;-78
